createdAt,value
2022-09-28T00:01:20.810Z,14.93
2022-09-28T00:03:50.535Z,14.89
2022-09-28T00:06:20.599Z,14.83
2022-09-28T00:08:51.316Z,14.96
2022-09-28T00:11:20.766Z,15.05
2022-09-28T00:13:56.674Z,14.97
2022-09-28T00:16:27.460Z,14.88
2022-09-28T00:18:55.534Z,14.76
2022-09-28T00:21:30.638Z,14.80
2022-09-28T00:24:15.700Z,14.77
2022-09-28T00:26:54.198Z,14.69
2022-09-28T00:29:21.476Z,14.66
2022-09-28T00:31:52.243Z,14.66
2022-09-28T00:34:20.056Z,14.59
2022-09-28T00:36:48.138Z,14.51
2022-09-28T00:39:16.301Z,14.45
2022-09-28T00:41:47.164Z,14.61
2022-09-28T00:44:26.445Z,14.63
2022-09-28T00:46:58.116Z,14.58
2022-09-28T00:49:52.559Z,14.60
2022-09-28T00:52:28.724Z,14.63
2022-09-28T00:54:58.623Z,14.60
2022-09-28T00:57:27.589Z,14.55
2022-09-28T00:59:55.557Z,14.43
2022-09-28T01:02:22.831Z,14.38
2022-09-28T01:04:51.480Z,14.31
2022-09-28T01:07:19.960Z,14.35
2022-09-28T01:09:48.527Z,14.30
2022-09-28T01:12:16.279Z,14.32
2022-09-28T01:14:44.971Z,14.36
2022-09-28T01:17:20.849Z,14.42
2022-09-28T01:20:15.708Z,14.36
2022-09-28T01:22:57.016Z,14.38
2022-09-28T01:25:39.169Z,14.30
2022-09-28T01:28:11.093Z,14.27
2022-09-28T01:30:44.490Z,14.19
2022-09-28T01:33:22.307Z,14.15
2022-09-28T01:35:58.103Z,14.17
2022-09-28T01:38:40.955Z,14.20
2022-09-28T01:41:10.331Z,14.19
2022-09-28T01:43:45.789Z,14.11
2022-09-28T01:46:17.765Z,14.14
2022-09-28T01:48:44.998Z,14.11
2022-09-28T01:51:21.579Z,14.10
2022-09-28T01:53:54.774Z,14.19
2022-09-28T01:56:36.854Z,14.19
2022-09-28T01:59:24.204Z,14.31
2022-09-28T02:02:09.873Z,14.37
2022-09-28T02:04:42.878Z,14.28
2022-09-28T02:07:21.525Z,14.12
2022-09-28T02:23:22.356Z,14.19
2022-09-28T02:25:59.113Z,14.16
2022-09-28T02:28:26.409Z,14.24
2022-09-28T02:30:53.783Z,14.30
2022-09-28T02:33:34.110Z,14.22
2022-09-28T02:36:03.490Z,14.36
2022-09-28T02:38:34.224Z,14.33
2022-09-28T02:41:08.334Z,14.13
2022-09-28T02:43:56.188Z,14.05
2022-09-28T02:46:47.730Z,14.24
2022-09-28T02:49:40.308Z,14.11
2022-09-28T02:52:19.715Z,14.05
2022-09-28T02:55:16.346Z,13.99
2022-09-28T02:58:08.908Z,14.11
2022-09-28T03:00:58.219Z,14.24
2022-09-28T03:03:47.470Z,13.94
2022-09-28T03:06:32.170Z,13.84
2022-09-28T03:09:20.661Z,13.80
2022-09-28T03:11:54.013Z,13.89
2022-09-28T03:14:22.141Z,14.23
2022-09-28T03:16:53.586Z,14.00
2022-09-28T03:19:27.471Z,14.12
2022-09-28T03:21:55.670Z,13.97
2022-09-28T03:24:22.989Z,14.10
2022-09-28T03:26:50.719Z,13.96
2022-09-28T03:29:20.415Z,13.89
2022-09-28T03:31:55.340Z,13.97
2022-09-28T03:34:22.958Z,13.94
2022-09-28T03:36:50.476Z,13.81
2022-09-28T03:39:20.678Z,13.86
2022-09-28T03:41:47.909Z,13.92
2022-09-28T03:44:16.284Z,13.95
2022-09-28T03:46:46.481Z,13.95
2022-09-28T03:49:13.794Z,13.94
2022-09-28T03:51:41.058Z,13.84
2022-09-28T03:54:09.269Z,13.86
2022-09-28T03:56:37.098Z,13.71
2022-09-28T03:59:05.166Z,13.64
2022-09-28T04:01:35.493Z,13.50
2022-09-28T04:04:02.846Z,13.46
2022-09-28T04:06:30.913Z,13.59
2022-09-28T04:08:58.339Z,13.53
2022-09-28T04:11:25.978Z,13.67
2022-09-28T04:13:53.300Z,13.78
2022-09-28T04:16:38.930Z,13.76
2022-09-28T04:19:15.740Z,13.86
2022-09-28T04:22:09.221Z,13.81
2022-09-28T04:24:36.586Z,13.84
2022-09-28T04:27:22.423Z,13.83
2022-09-28T04:29:49.702Z,14.05
2022-09-28T04:32:17.477Z,14.08
2022-09-28T04:34:44.788Z,14.03
2022-09-28T04:37:12.719Z,14.08
2022-09-28T04:39:43.126Z,14.09
2022-09-28T04:42:13.711Z,14.12
2022-09-28T04:44:40.976Z,14.12
2022-09-28T04:47:09.898Z,14.07
2022-09-28T04:49:55.969Z,14.03
2022-09-28T04:52:30.910Z,14.05
2022-09-28T04:54:58.210Z,14.09
2022-09-28T04:57:26.445Z,14.15
2022-09-28T04:59:55.124Z,14.08
2022-09-28T05:02:22.422Z,14.07
2022-09-28T05:05:08.727Z,14.07
2022-09-28T05:07:45.952Z,13.91
2022-09-28T05:10:13.358Z,13.95
2022-09-28T05:12:41.064Z,14.04
2022-09-28T05:15:08.847Z,13.95
2022-09-28T05:17:36.318Z,14.03
2022-09-28T05:20:29.707Z,14.13
2022-09-28T05:22:57.382Z,14.15
2022-09-28T05:25:24.833Z,14.19
2022-09-28T05:28:27.995Z,14.21
2022-09-28T05:31:33.595Z,14.18
2022-09-28T05:34:12.825Z,14.31
2022-09-28T05:36:42.641Z,14.41
2022-09-28T05:39:09.922Z,14.41
2022-09-28T05:41:37.267Z,14.29
2022-09-28T05:44:05.423Z,14.20
2022-09-28T05:46:33.973Z,14.15
2022-09-28T05:49:02.033Z,14.12
2022-09-28T05:51:29.402Z,14.20
2022-09-28T05:54:00.649Z,14.19
2022-09-28T05:56:31.374Z,14.40
2022-09-28T05:58:58.939Z,14.51
2022-09-28T06:01:29.193Z,14.66
2022-09-28T06:03:58.496Z,14.88
2022-09-28T06:06:26.190Z,14.87
2022-09-28T06:08:53.473Z,14.90
2022-09-28T06:11:31.870Z,14.89
2022-09-28T06:14:02.937Z,15.07
2022-09-28T06:16:31.891Z,15.14
2022-09-28T06:18:59.245Z,15.18
2022-09-28T06:21:57.543Z,15.20
2022-09-28T06:24:27.056Z,15.24
2022-09-28T06:26:54.312Z,15.27
2022-09-28T06:29:22.366Z,15.31
2022-09-28T06:31:49.627Z,15.38
2022-09-28T06:34:19.092Z,15.43
2022-09-28T06:37:05.264Z,15.43
2022-09-28T06:39:33.192Z,15.50
2022-09-28T06:42:03.261Z,15.49
2022-09-28T06:44:50.451Z,15.60
2022-09-28T06:47:25.099Z,15.63
2022-09-28T06:50:12.196Z,15.65
2022-09-28T06:53:08.644Z,15.78
2022-09-28T06:55:57.429Z,15.87
2022-09-28T06:58:24.979Z,15.70
2022-09-28T07:00:52.520Z,15.69
2022-09-28T07:03:22.047Z,15.69
2022-09-28T07:06:00.010Z,15.77
2022-09-28T07:09:03.515Z,15.88
2022-09-28T07:12:13.392Z,16.14
2022-09-28T07:14:50.187Z,16.11
2022-09-28T07:17:17.892Z,16.07
2022-09-28T07:19:45.198Z,16.12
2022-09-28T07:22:18.497Z,16.23
2022-09-28T07:24:48.348Z,16.33
2022-09-28T07:27:44.946Z,16.43
2022-09-28T07:51:22.179Z,18.60
2022-09-28T07:54:10.614Z,18.16
2022-09-28T07:57:01.241Z,18.15
2022-09-28T07:59:49.836Z,18.28
2022-09-28T08:02:37.218Z,18.49
2022-09-28T08:05:05.607Z,18.54
2022-09-28T08:07:34.408Z,18.49
2022-09-28T08:10:06.045Z,18.15
2022-09-28T08:12:59.246Z,18.22
2022-09-28T08:15:52.454Z,18.19
2022-09-28T08:18:33.257Z,18.08
2022-09-28T08:21:21.734Z,18.11
2022-09-28T08:23:49.418Z,18.25
2022-09-28T08:26:17.088Z,18.62
2022-09-28T08:28:47.770Z,18.23
2022-09-28T08:31:37.746Z,18.33
2022-09-28T08:34:22.555Z,18.68
2022-09-28T08:36:53.326Z,18.93
2022-09-28T08:39:39.255Z,19.09
2022-09-28T08:42:43.370Z,19.34
2022-09-28T08:45:29.024Z,19.34
2022-09-28T08:48:33.263Z,19.90
2022-09-28T08:51:18.303Z,20.74
2022-09-28T08:54:08.093Z,22.24
2022-09-28T08:56:52.781Z,23.04
2022-09-28T08:59:24.763Z,23.48
2022-09-28T09:02:04.106Z,24.14
2022-09-28T09:04:33.819Z,23.77
2022-09-28T09:07:43.932Z,24.76
2022-09-28T09:10:35.326Z,24.82
2022-09-28T09:13:39.645Z,25.33
2022-09-28T09:16:25.686Z,25.33
2022-09-28T09:19:40.376Z,26.73
2022-09-28T09:22:47.875Z,26.46
2022-09-28T09:25:21.850Z,27.26
2022-09-28T09:27:52.036Z,26.46
2022-09-28T09:30:25.498Z,25.50
2022-09-28T09:33:30.688Z,25.14
2022-09-28T09:36:53.490Z,26.20
2022-09-28T09:39:45.098Z,25.24
2022-09-28T09:43:21.072Z,23.51
2022-09-28T09:46:19.867Z,23.39
2022-09-28T09:49:18.402Z,24.01
2022-09-28T09:51:57.729Z,24.10
2022-09-28T09:54:46.794Z,24.02
2022-09-28T09:57:39.595Z,23.29
2022-09-28T10:00:28.145Z,23.98
2022-09-28T10:03:21.431Z,23.00
2022-09-28T10:05:55.615Z,22.80
2022-09-28T10:08:25.926Z,23.38
2022-09-28T10:11:07.634Z,23.57
2022-09-28T10:13:42.040Z,23.40
2022-09-28T10:16:33.060Z,24.16
2022-09-28T10:19:01.650Z,24.69
2022-09-28T10:22:02.559Z,24.83
2022-09-28T10:24:42.709Z,23.94
2022-09-28T10:27:25.658Z,24.24
2022-09-28T10:29:57.636Z,24.54
2022-09-28T10:32:26.109Z,25.10
2022-09-28T10:35:16.977Z,24.94
2022-09-28T10:37:57.030Z,25.16
2022-09-28T10:41:01.724Z,25.57
2022-09-28T10:44:06.211Z,24.98
2022-09-28T10:46:39.656Z,25.18
2022-09-28T10:49:20.139Z,24.24
2022-09-28T10:51:58.677Z,24.46
2022-09-28T10:54:38.706Z,24.59
2022-09-28T10:57:42.420Z,23.89
2022-09-28T11:00:40.711Z,23.72
2022-09-28T11:03:28.093Z,23.89
2022-09-28T11:06:07.917Z,24.10
2022-09-28T11:08:44.526Z,23.29
2022-09-28T11:11:20.084Z,23.37
2022-09-28T11:13:54.308Z,23.29
2022-09-28T11:16:31.426Z,23.97
2022-09-28T11:19:20.713Z,24.37
2022-09-28T11:21:49.417Z,24.02
2022-09-28T11:24:19.732Z,23.44
2022-09-28T11:26:50.797Z,22.79
2022-09-28T11:29:38.924Z,22.45
2022-09-28T11:32:23.810Z,22.11
2022-09-28T11:35:20.713Z,22.72
2022-09-28T11:38:03.527Z,22.45
2022-09-28T11:41:10.462Z,22.99
2022-09-28T11:43:53.636Z,23.52
2022-09-28T11:46:56.638Z,23.32
2022-09-28T11:49:53.828Z,23.00
2022-09-28T11:52:47.319Z,23.60
2022-09-28T11:55:26.758Z,23.69
2022-09-28T11:58:06.200Z,23.29
2022-09-28T12:00:40.928Z,23.23
2022-09-28T12:03:21.714Z,22.83
2022-09-28T12:05:59.218Z,23.16
2022-09-28T12:08:31.085Z,23.44
2022-09-28T12:11:15.608Z,23.73
2022-09-28T12:14:34.373Z,23.24
2022-09-28T12:17:11.342Z,22.92
2022-09-28T12:19:52.187Z,23.46
2022-09-28T12:22:25.491Z,23.48
2022-09-28T12:24:56.487Z,23.42
2022-09-28T12:27:38.835Z,23.58
2022-09-28T12:30:09.383Z,23.51
2022-09-28T12:33:27.392Z,23.00
2022-09-28T12:36:30.343Z,22.62
2022-09-28T12:39:40.772Z,22.56
2022-09-28T12:42:29.144Z,21.98
2022-09-28T12:45:17.435Z,22.16
2022-09-28T12:48:08.179Z,22.04
2022-09-28T12:50:57.916Z,22.04
2022-09-28T12:53:47.318Z,21.97
2022-09-28T12:56:42.156Z,21.90
2022-09-28T12:59:29.164Z,21.77
2022-09-28T13:02:21.460Z,21.82
2022-09-28T13:05:01.045Z,21.98
2022-09-28T13:07:40.729Z,21.98
2022-09-28T13:10:22.034Z,21.91
2022-09-28T13:13:10.345Z,21.92
2022-09-28T13:15:56.086Z,21.45
2022-09-28T13:18:42.770Z,21.30
2022-09-28T13:21:20.464Z,21.46
2022-09-28T13:23:50.369Z,21.28
2022-09-28T13:26:26.265Z,21.14
2022-09-28T13:28:59.220Z,21.32
2022-09-28T13:31:33.158Z,21.35
2022-09-28T13:34:04.236Z,20.95
2022-09-28T13:36:31.433Z,21.14
2022-09-28T13:39:00.174Z,21.07
2022-09-28T13:41:38.583Z,20.98
2022-09-28T13:44:18.107Z,21.03
2022-09-28T13:46:55.036Z,21.26
2022-09-28T13:49:45.535Z,21.41
2022-09-28T13:52:36.899Z,21.09
2022-09-28T13:55:33.404Z,20.99
2022-09-28T13:58:04.494Z,21.03
2022-09-28T14:00:45.452Z,21.14
2022-09-28T14:03:51.552Z,21.09
2022-09-28T14:06:33.252Z,20.94
2022-09-28T14:09:26.844Z,20.93
2022-09-28T14:12:03.082Z,21.06
2022-09-28T14:14:47.231Z,20.94
2022-09-28T14:17:23.637Z,20.99
2022-09-28T14:19:53.330Z,21.10
2022-09-28T14:22:28.796Z,21.39
2022-09-28T14:25:20.760Z,21.37
2022-09-28T14:28:06.657Z,21.34
2022-09-28T14:30:43.127Z,21.38
2022-09-28T14:33:28.188Z,21.47
2022-09-28T14:36:47.286Z,21.31
2022-09-28T14:39:51.112Z,21.40
2022-09-28T14:42:24.459Z,20.99
2022-09-28T14:45:06.705Z,21.10
2022-09-28T14:47:34.956Z,20.88
2022-09-28T14:50:20.180Z,20.85
2022-09-28T14:52:52.613Z,20.91
2022-09-28T14:55:27.670Z,20.71
2022-09-28T14:57:57.919Z,20.66
2022-09-28T15:00:29.331Z,20.72
2022-09-28T15:03:03.009Z,20.74
2022-09-28T15:05:38.495Z,20.85
2022-09-28T15:08:10.260Z,20.83
2022-09-28T15:10:42.028Z,20.78
2022-09-28T15:13:25.980Z,20.80
2022-09-28T15:16:10.439Z,20.50
2022-09-28T15:18:59.222Z,20.58
2022-09-28T15:21:40.988Z,20.55
2022-09-28T15:24:31.511Z,20.50
2022-09-28T15:27:14.930Z,20.47
2022-09-28T15:30:16.020Z,20.42
2022-09-28T15:32:43.228Z,20.46
2022-09-28T15:35:20.543Z,20.43
2022-09-28T15:37:51.914Z,20.28
2022-09-28T15:40:30.264Z,20.49
2022-09-28T15:42:59.349Z,20.56
2022-09-28T15:45:40.590Z,20.57
2022-09-28T15:48:31.003Z,20.78
2022-09-28T15:51:06.162Z,20.69
2022-09-28T15:53:33.845Z,20.50
2022-09-28T15:56:09.827Z,20.26
2022-09-28T15:58:43.521Z,20.27
2022-09-28T16:01:40.894Z,20.21
2022-09-28T16:04:33.073Z,20.10
2022-09-28T16:07:09.391Z,20.37
2022-09-28T16:10:04.799Z,20.31
2022-09-28T16:12:43.485Z,20.39
2022-09-28T16:15:14.226Z,20.40
2022-09-28T16:17:42.050Z,20.38
2022-09-28T16:20:28.444Z,20.48
2022-09-28T16:22:57.762Z,20.19
2022-09-28T16:25:27.011Z,20.16
2022-09-28T16:27:55.333Z,20.01
2022-09-28T16:30:33.807Z,19.96
2022-09-28T16:33:25.668Z,19.88
2022-09-28T16:35:52.983Z,19.72
2022-09-28T16:38:20.679Z,19.63
2022-09-28T16:40:50.671Z,19.46
2022-09-28T16:43:17.904Z,19.32
2022-09-28T16:45:46.245Z,19.21
2022-09-28T16:48:16.492Z,19.23
2022-09-28T16:50:45.135Z,19.20
2022-09-28T16:53:35.663Z,19.08
2022-09-28T16:56:04.740Z,19.09
2022-09-28T16:58:32.258Z,19.06
2022-09-28T17:01:00.477Z,19.19
2022-09-28T17:03:28.717Z,19.14
2022-09-28T17:05:56.585Z,19.22
2022-09-28T17:08:25.554Z,19.09
2022-09-28T17:11:18.985Z,18.95
2022-09-28T17:13:47.140Z,18.96
2022-09-28T17:16:17.900Z,18.87
2022-09-28T17:18:46.016Z,18.76
2022-09-28T17:21:16.265Z,18.86
2022-09-28T17:23:44.891Z,18.79
2022-09-28T17:26:34.395Z,18.69
2022-09-28T17:29:01.983Z,18.58
2022-09-28T17:31:30.258Z,18.70
2022-09-28T17:33:58.111Z,18.52
2022-09-28T17:36:26.653Z,18.43
2022-09-28T17:38:53.905Z,18.43
2022-09-28T17:41:21.263Z,18.41
2022-09-28T17:43:49.342Z,18.38
2022-09-28T17:46:38.710Z,18.35
2022-09-28T17:49:07.563Z,18.20
2022-09-28T17:51:39.525Z,18.33
2022-09-28T17:54:08.008Z,18.32
2022-09-28T17:56:36.500Z,18.23
2022-09-28T17:59:10.101Z,18.12
2022-09-28T18:01:39.155Z,18.02
2022-09-28T18:04:08.833Z,18.02
2022-09-28T18:06:41.001Z,18.14
2022-09-28T18:09:09.382Z,18.23
2022-09-28T18:11:42.257Z,18.11
2022-09-28T18:14:11.327Z,18.15
2022-09-28T18:16:38.935Z,17.95
2022-09-28T18:19:06.261Z,17.89
2022-09-28T18:21:33.693Z,17.86
2022-09-28T18:24:01.189Z,17.86
2022-09-28T18:26:28.458Z,17.88
2022-09-28T18:28:56.343Z,17.97
2022-09-28T18:31:23.696Z,18.07
2022-09-28T18:33:51.171Z,18.03
2022-09-28T18:36:18.443Z,17.92
2022-09-28T18:38:45.639Z,17.97
2022-09-28T18:41:16.744Z,17.89
2022-09-28T18:43:50.233Z,17.71
2022-09-28T18:46:18.444Z,17.73
2022-09-28T18:48:47.699Z,17.59
2022-09-28T18:51:15.151Z,17.50
2022-09-28T18:53:42.452Z,17.37
2022-09-28T18:56:12.991Z,17.37
2022-09-28T18:58:44.274Z,17.15
2022-09-28T19:01:29.423Z,17.05
2022-09-28T19:04:06.589Z,17.07
2022-09-28T19:06:36.898Z,16.98
2022-09-28T19:09:04.406Z,17.00
2022-09-28T19:11:31.731Z,16.86
2022-09-28T19:13:59.123Z,16.78
2022-09-28T19:16:31.239Z,16.78
2022-09-28T19:18:58.935Z,16.82
2022-09-28T19:21:29.691Z,16.70
2022-09-28T19:24:00.540Z,16.69
2022-09-28T19:26:31.324Z,16.68
2022-09-28T19:28:59.584Z,16.74
2022-09-28T19:31:28.682Z,16.73
2022-09-28T19:33:55.952Z,16.65
2022-09-28T19:36:24.827Z,16.56
2022-09-28T19:38:52.685Z,16.51
2022-09-28T19:41:44.162Z,16.47
2022-09-28T19:44:19.285Z,16.49
2022-09-28T19:46:46.714Z,16.53
2022-09-28T19:49:23.714Z,16.56
2022-09-28T19:52:14.384Z,16.67
2022-09-28T19:54:54.360Z,16.54
2022-09-28T19:57:24.632Z,16.30
2022-09-28T19:59:54.993Z,16.22
2022-09-28T20:02:24.057Z,16.22
2022-09-28T20:04:51.255Z,16.16
2022-09-28T20:07:18.584Z,16.23
2022-09-28T20:09:45.859Z,16.24
2022-09-28T20:12:13.108Z,16.20
2022-09-28T20:14:40.653Z,16.29
2022-09-28T20:17:08.117Z,16.32
2022-09-28T20:19:36.056Z,16.28
2022-09-28T20:22:03.970Z,16.31
2022-09-28T20:24:31.970Z,16.34
2022-09-28T20:26:59.326Z,16.40
2022-09-28T20:29:26.712Z,16.39
2022-09-28T20:31:53.956Z,16.16
2022-09-28T20:34:21.316Z,15.97
2022-09-28T20:36:51.253Z,15.82
2022-09-28T20:39:18.716Z,15.86
2022-09-28T20:41:47.216Z,15.91
2022-09-28T20:44:14.905Z,15.97
2022-09-28T20:46:44.099Z,16.01
2022-09-28T20:49:11.512Z,16.08
2022-09-28T20:51:38.724Z,16.14
2022-09-28T20:54:05.981Z,16.14
2022-09-28T20:56:38.078Z,16.15
2022-09-28T20:59:07.460Z,16.09
2022-09-28T21:01:35.207Z,16.10
2022-09-28T21:04:04.675Z,16.08
2022-09-28T21:06:34.879Z,16.11
2022-09-28T21:09:03.700Z,16.14
2022-09-28T21:11:32.122Z,16.10
2022-09-28T21:14:01.741Z,16.07
2022-09-28T21:16:31.383Z,16.08
2022-09-28T21:18:59.189Z,16.08
2022-09-28T21:21:28.905Z,16.01
2022-09-28T21:23:57.349Z,16.03
2022-09-28T21:26:29.457Z,15.97
2022-09-28T21:29:04.069Z,15.79
2022-09-28T21:31:38.359Z,15.70
2022-09-28T21:34:06.343Z,15.76
2022-09-28T21:36:34.222Z,15.72
2022-09-28T21:39:04.954Z,15.74
2022-09-28T21:41:34.363Z,15.77
2022-09-28T21:44:01.706Z,15.81
2022-09-28T21:46:34.013Z,15.88
2022-09-28T21:49:02.986Z,15.92
2022-09-28T21:51:31.088Z,15.88
2022-09-28T21:53:58.499Z,15.88
2022-09-28T21:56:26.785Z,15.88
2022-09-28T21:58:54.034Z,15.90
2022-09-28T22:01:25.455Z,15.99
2022-09-28T22:03:55.149Z,15.94
2022-09-28T22:06:24.798Z,15.82
2022-09-28T22:08:52.722Z,15.69
2022-09-28T22:11:22.782Z,15.67
2022-09-28T22:13:52.880Z,15.40
2022-09-28T22:16:23.012Z,15.46
2022-09-28T22:18:50.851Z,15.44
2022-09-28T22:21:26.062Z,15.39
2022-09-28T22:23:54.120Z,15.34
2022-09-28T22:26:25.621Z,15.24
2022-09-28T22:28:58.521Z,15.35
2022-09-28T22:31:28.627Z,15.30
2022-09-28T22:33:57.055Z,15.20
2022-09-28T22:36:25.922Z,15.22
2022-09-28T22:38:57.780Z,15.37
2022-09-28T22:41:25.531Z,15.71
2022-09-28T22:43:54.550Z,15.70
2022-09-28T22:46:25.339Z,15.60
2022-09-28T22:48:55.073Z,15.60
2022-09-28T22:51:24.207Z,15.62
2022-09-28T22:53:51.644Z,15.60
2022-09-28T22:56:19.352Z,15.61
2022-09-28T22:58:46.856Z,15.53
2022-09-28T23:01:19.847Z,15.45
2022-09-28T23:03:47.811Z,15.39
2022-09-28T23:06:17.002Z,15.42
2022-09-28T23:08:45.810Z,15.33
2022-09-28T23:11:13.207Z,15.36
2022-09-28T23:13:42.967Z,15.37
2022-09-28T23:16:14.794Z,15.45
2022-09-28T23:18:42.173Z,15.47
2022-09-28T23:21:15.194Z,15.39
2022-09-28T23:23:47.033Z,15.27
2022-09-28T23:26:29.494Z,15.15
2022-09-28T23:28:57.923Z,15.23
2022-09-28T23:31:28.403Z,15.34
2022-09-28T23:34:01.738Z,15.39
2022-09-28T23:36:29.398Z,15.48
2022-09-28T23:38:56.741Z,15.59
2022-09-28T23:41:24.171Z,15.55
2022-09-28T23:43:51.423Z,15.52
2022-09-28T23:46:20.875Z,15.48
2022-09-28T23:48:48.980Z,15.41
2022-09-28T23:51:17.892Z,15.46
2022-09-28T23:53:45.791Z,15.37
2022-09-28T23:56:14.562Z,15.43
2022-09-28T23:58:44.759Z,15.40
